sensor_id;sensor_type;location;lat;lon;timestamp;pressure;altitude;pressure_sealevel;temperature;humidity
20983;BME280;10650;51.528;6.748;2023-06-14T00:01:10;101176.09;;;21.12;38.92
20983;BME280;10650;51.528;6.748;2023-06-14T00:03:40;101177.09;;;21.11;38.91
20983;BME280;10650;51.528;6.748;2023-06-14T00:06:08;101176.25;;;21.08;38.88
20983;BME280;10650;51.528;6.748;2023-06-14T00:08:37;101178.03;;;21.09;39.12
20983;BME280;10650;51.528;6.748;2023-06-14T00:11:06;101181.97;;;21.02;38.98
20983;BME280;10650;51.528;6.748;2023-06-14T00:13:34;101173.84;;;21.02;39.39
20983;BME280;10650;51.528;6.748;2023-06-14T00:16:02;101181.97;;;21.02;39.50
20983;BME280;10650;51.528;6.748;2023-06-14T00:18:30;101180.44;;;20.97;39.43
20983;BME280;10650;51.528;6.748;2023-06-14T00:20:59;101190.69;;;20.90;39.63
20983;BME280;10650;51.528;6.748;2023-06-14T00:23:28;101184.84;;;20.79;39.60
20983;BME280;10650;51.528;6.748;2023-06-14T00:25:58;101191.44;;;20.73;39.83
20983;BME280;10650;51.528;6.748;2023-06-14T00:28:26;101191.34;;;20.74;40.08
20983;BME280;10650;51.528;6.748;2023-06-14T00:30:54;101198.00;;;20.67;40.11
20983;BME280;10650;51.528;6.748;2023-06-14T00:33:21;101197.06;;;20.68;40.15
20983;BME280;10650;51.528;6.748;2023-06-14T00:35:49;101205.22;;;20.68;39.90
20983;BME280;10650;51.528;6.748;2023-06-14T00:38:20;101206.91;;;20.71;40.01
20983;BME280;10650;51.528;6.748;2023-06-14T00:40:48;101200.72;;;20.67;40.26
20983;BME280;10650;51.528;6.748;2023-06-14T00:43:17;101200.72;;;20.67;40.02
20983;BME280;10650;51.528;6.748;2023-06-14T00:45:47;101202.66;;;20.64;40.27
20983;BME280;10650;51.528;6.748;2023-06-14T00:48:17;101205.69;;;20.56;40.21
20983;BME280;10650;51.528;6.748;2023-06-14T00:50:47;101211.03;;;20.59;40.22
20983;BME280;10650;51.528;6.748;2023-06-14T00:53:17;101212.03;;;20.56;40.15
20983;BME280;10650;51.528;6.748;2023-06-14T00:55:45;101212.03;;;20.56;40.11
20983;BME280;10650;51.528;6.748;2023-06-14T00:58:13;101217.38;;;20.58;40.23
20983;BME280;10650;51.528;6.748;2023-06-14T01:00:43;101212.91;;;20.57;40.28
20983;BME280;10650;51.528;6.748;2023-06-14T01:03:11;101215.25;;;20.44;40.31
20983;BME280;10650;51.528;6.748;2023-06-14T01:05:41;101218.97;;;20.42;39.90
20983;BME280;10650;51.528;6.748;2023-06-14T01:08:21;101215.25;;;20.44;40.13
20983;BME280;10650;51.528;6.748;2023-06-14T01:10:56;101217.41;;;20.36;40.14
20983;BME280;10650;51.528;6.748;2023-06-14T01:13:29;101219.59;;;20.28;40.08
20983;BME280;10650;51.528;6.748;2023-06-14T01:16:01;101209.75;;;20.25;40.08
20983;BME280;10650;51.528;6.748;2023-06-14T01:18:29;101218.63;;;20.29;40.08
20983;BME280;10650;51.528;6.748;2023-06-14T01:20:58;101212.25;;;20.30;39.97
20983;BME280;10650;51.528;6.748;2023-06-14T01:23:27;101209.81;;;20.23;39.87
20983;BME280;10650;51.528;6.748;2023-06-14T01:25:59;101212.53;;;20.23;39.78
20983;BME280;10650;51.528;6.748;2023-06-14T01:28:29;101218.22;;;20.17;39.90
20983;BME280;10650;51.528;6.748;2023-06-14T01:31:01;101217.38;;;20.15;39.73
20983;BME280;10650;51.528;6.748;2023-06-14T01:33:32;101211.94;;;20.15;39.79
20983;BME280;10650;51.528;6.748;2023-06-14T01:36:02;101208.50;;;20.12;39.81
20983;BME280;10650;51.528;6.748;2023-06-14T01:38:32;101214.72;;;20.14;39.74
20983;BME280;10650;51.528;6.748;2023-06-14T01:41:00;101211.28;;;20.10;39.67
20983;BME280;10650;51.528;6.748;2023-06-14T01:43:29;101207.66;;;20.10;39.77
20983;BME280;10650;51.528;6.748;2023-06-14T01:45:59;101203.50;;;20.01;39.75
20983;BME280;10650;51.528;6.748;2023-06-14T01:48:28;101208.88;;;20.02;39.79
20983;BME280;10650;51.528;6.748;2023-06-14T01:50:55;101212.44;;;20.03;39.89
20983;BME280;10650;51.528;6.748;2023-06-14T01:53:23;101218.00;;;20.00;39.64
20983;BME280;10650;51.528;6.748;2023-06-14T01:55:52;101210.00;;;19.97;39.90
20983;BME280;10650;51.528;6.748;2023-06-14T01:58:20;101213.09;;;19.87;39.73
20983;BME280;10650;51.528;6.748;2023-06-14T02:00:48;101217.69;;;19.85;39.95
20983;BME280;10650;51.528;6.748;2023-06-14T02:03:17;101210.53;;;19.83;39.73
20983;BME280;10650;51.528;6.748;2023-06-14T02:05:46;101215.94;;;19.84;39.73
20983;BME280;10650;51.528;6.748;2023-06-14T02:08:14;101219.47;;;19.86;39.82
20983;BME280;10650;51.528;6.748;2023-06-14T02:10:41;101217.63;;;19.87;39.96
20983;BME280;10650;51.528;6.748;2023-06-14T02:13:11;101214.16;;;19.83;39.93
20983;BME280;10650;51.528;6.748;2023-06-14T02:15:38;101212.38;;;19.82;39.87
20983;BME280;10650;51.528;6.748;2023-06-14T02:18:06;101213.31;;;19.81;40.15
20983;BME280;10650;51.528;6.748;2023-06-14T02:20:34;101212.50;;;19.79;39.97
20983;BME280;10650;51.528;6.748;2023-06-14T02:23:02;101209.91;;;19.76;39.90
20983;BME280;10650;51.528;6.748;2023-06-14T02:25:30;101219.84;;;19.76;40.02
20983;BME280;10650;51.528;6.748;2023-06-14T02:27:58;101220.03;;;19.71;39.93
20983;BME280;10650;51.528;6.748;2023-06-14T02:30:27;101221.09;;;19.67;40.30
20983;BME280;10650;51.528;6.748;2023-06-14T02:32:55;101224.91;;;19.61;40.32
20983;BME280;10650;51.528;6.748;2023-06-14T02:35:23;101223.28;;;19.57;40.27
20983;BME280;10650;51.528;6.748;2023-06-14T02:37:53;101225.94;;;19.59;40.41
20983;BME280;10650;51.528;6.748;2023-06-14T02:40:21;101234.09;;;19.57;40.48
20983;BME280;10650;51.528;6.748;2023-06-14T02:42:49;101232.56;;;19.51;40.76
20983;BME280;10650;51.528;6.748;2023-06-14T02:45:19;101228.13;;;19.49;40.94
20983;BME280;10650;51.528;6.748;2023-06-14T02:47:48;101240.88;;;19.45;40.95
20983;BME280;10650;51.528;6.748;2023-06-14T02:50:17;101236.53;;;19.41;41.12
20983;BME280;10650;51.528;6.748;2023-06-14T02:52:44;101239.41;;;19.36;41.29
20983;BME280;10650;51.528;6.748;2023-06-14T02:55:12;101247.72;;;19.32;41.40
20983;BME280;10650;51.528;6.748;2023-06-14T02:57:43;101241.53;;;19.28;41.18
20983;BME280;10650;51.528;6.748;2023-06-14T03:00:15;101247.06;;;19.25;41.19
20983;BME280;10650;51.528;6.748;2023-06-14T03:02:43;101243.41;;;19.26;41.62
20983;BME280;10650;51.528;6.748;2023-06-14T03:05:14;101255.19;;;19.25;41.33
20983;BME280;10650;51.528;6.748;2023-06-14T03:07:42;101252.59;;;19.22;41.47
20983;BME280;10650;51.528;6.748;2023-06-14T03:10:11;101255.31;;;19.22;41.40
20983;BME280;10650;51.528;6.748;2023-06-14T03:12:40;101265.25;;;19.22;41.46
20983;BME280;10650;51.528;6.748;2023-06-14T03:15:09;101262.69;;;19.18;41.40
20983;BME280;10650;51.528;6.748;2023-06-14T03:17:37;101263.50;;;19.21;41.70
20983;BME280;10650;51.528;6.748;2023-06-14T03:20:06;101274.44;;;19.17;41.79
20983;BME280;10650;51.528;6.748;2023-06-14T03:22:36;101271.91;;;19.13;41.48
20983;BME280;10650;51.528;6.748;2023-06-14T03:25:07;101272.91;;;19.10;41.76
20983;BME280;10650;51.528;6.748;2023-06-14T03:27:36;101271.06;;;19.11;41.64
20983;BME280;10650;51.528;6.748;2023-06-14T03:30:06;101276.47;;;19.11;41.52
20983;BME280;10650;51.528;6.748;2023-06-14T03:32:34;101266.53;;;19.11;41.68
20983;BME280;10650;51.528;6.748;2023-06-14T03:35:02;101281.78;;;19.14;41.76
20983;BME280;10650;51.528;6.748;2023-06-14T03:37:30;101280.09;;;19.11;41.89
20983;BME280;10650;51.528;6.748;2023-06-14T03:39:59;101272.91;;;19.10;42.03
20983;BME280;10650;51.528;6.748;2023-06-14T03:42:27;101278.44;;;19.07;41.99
20983;BME280;10650;51.528;6.748;2023-06-14T03:44:55;101285.59;;;19.08;42.17
20983;BME280;10650;51.528;6.748;2023-06-14T03:47:23;101280.16;;;19.08;42.21
20983;BME280;10650;51.528;6.748;2023-06-14T03:49:51;101281.94;;;19.09;42.15
20983;BME280;10650;51.528;6.748;2023-06-14T03:52:18;101290.00;;;19.11;41.96
20983;BME280;10650;51.528;6.748;2023-06-14T03:54:48;101295.44;;;19.11;42.13
20983;BME280;10650;51.528;6.748;2023-06-14T03:57:22;101290.06;;;19.09;42.27
20983;BME280;10650;51.528;6.748;2023-06-14T03:59:51;101296.34;;;19.10;42.13
20983;BME280;10650;51.528;6.748;2023-06-14T04:02:19;101302.69;;;19.10;41.85
20983;BME280;10650;51.528;6.748;2023-06-14T04:04:47;101302.56;;;19.13;42.12
20983;BME280;10650;51.528;6.748;2023-06-14T04:07:15;101301.47;;;19.19;42.17
20983;BME280;10650;51.528;6.748;2023-06-14T04:09:46;101306.09;;;19.15;41.93
20983;BME280;10650;51.528;6.748;2023-06-14T04:12:14;101318.03;;;19.10;42.32
20983;BME280;10650;51.528;6.748;2023-06-14T04:14:43;101316.22;;;19.10;42.26
20983;BME280;10650;51.528;6.748;2023-06-14T04:17:11;101326.13;;;19.11;42.13
20983;BME280;10650;51.528;6.748;2023-06-14T04:19:39;101321.56;;;19.12;42.11
20983;BME280;10650;51.528;6.748;2023-06-14T04:22:07;101321.47;;;19.15;42.12
20983;BME280;10650;51.528;6.748;2023-06-14T04:24:37;101316.03;;;19.15;42.10
20983;BME280;10650;51.528;6.748;2023-06-14T04:27:05;101317.75;;;19.17;42.04
20983;BME280;10650;51.528;6.748;2023-06-14T04:29:33;101318.53;;;19.21;42.12
20983;BME280;10650;51.528;6.748;2023-06-14T04:32:03;101319.44;;;19.22;42.10
20983;BME280;10650;51.528;6.748;2023-06-14T04:34:32;101322.91;;;19.25;42.17
20983;BME280;10650;51.528;6.748;2023-06-14T04:37:01;101322.09;;;19.23;41.93
20983;BME280;10650;51.528;6.748;2023-06-14T04:39:29;101333.56;;;19.30;41.95
20983;BME280;10650;51.528;6.748;2023-06-14T04:41:56;101337.44;;;19.48;41.85
20983;BME280;10650;51.528;6.748;2023-06-14T04:44:27;101330.28;;;19.94;41.63
20983;BME280;10650;51.528;6.748;2023-06-14T04:46:58;101330.66;;;20.77;41.03
20983;BME280;10650;51.528;6.748;2023-06-14T04:49:28;101335.53;;;22.11;38.88
20983;BME280;10650;51.528;6.748;2023-06-14T04:51:59;101331.44;;;23.47;36.91
20983;BME280;10650;51.528;6.748;2023-06-14T04:54:28;101329.75;;;24.43;34.42
20983;BME280;10650;51.528;6.748;2023-06-14T04:56:58;101332.03;;;25.28;33.13
20983;BME280;10650;51.528;6.748;2023-06-14T04:59:26;101335.63;;;25.87;32.54
20983;BME280;10650;51.528;6.748;2023-06-14T05:01:54;101335.34;;;25.92;31.66
20983;BME280;10650;51.528;6.748;2023-06-14T05:04:23;101340.34;;;25.26;31.40
20983;BME280;10650;51.528;6.748;2023-06-14T05:06:54;101342.84;;;24.52;32.09
20983;BME280;10650;51.528;6.748;2023-06-14T05:09:22;101348.00;;;23.60;33.85
20983;BME280;10650;51.528;6.748;2023-06-14T05:11:50;101344.88;;;22.97;34.78
20983;BME280;10650;51.528;6.748;2023-06-14T05:14:17;101354.88;;;22.43;35.65
20983;BME280;10650;51.528;6.748;2023-06-14T05:16:46;101358.38;;;22.07;36.48
20983;BME280;10650;51.528;6.748;2023-06-14T05:19:15;101355.78;;;21.85;36.96
20983;BME280;10650;51.528;6.748;2023-06-14T05:21:44;101361.88;;;21.71;37.50
20983;BME280;10650;51.528;6.748;2023-06-14T05:24:14;101356.47;;;21.90;37.98
20983;BME280;10650;51.528;6.748;2023-06-14T05:26:43;101357.28;;;22.11;38.01
20983;BME280;10650;51.528;6.748;2023-06-14T05:29:11;101354.56;;;22.30;37.51
20983;BME280;10650;51.528;6.748;2023-06-14T05:31:39;101366.97;;;22.55;37.09
20983;BME280;10650;51.528;6.748;2023-06-14T05:34:07;101364.84;;;22.61;36.99
20983;BME280;10650;51.528;6.748;2023-06-14T05:36:35;101360.44;;;22.59;36.94
20983;BME280;10650;51.528;6.748;2023-06-14T05:39:03;101358.59;;;22.59;36.60
20983;BME280;10650;51.528;6.748;2023-06-14T05:41:33;101357.72;;;22.59;36.66
20983;BME280;10650;51.528;6.748;2023-06-14T05:44:01;101368.09;;;22.51;36.49
20983;BME280;10650;51.528;6.748;2023-06-14T05:46:29;101362.53;;;22.35;37.26
20983;BME280;10650;51.528;6.748;2023-06-14T05:48:57;101373.16;;;22.20;37.47
20983;BME280;10650;51.528;6.748;2023-06-14T05:51:25;101365.63;;;22.06;37.67
20983;BME280;10650;51.528;6.748;2023-06-14T05:53:53;101376.47;;;22.08;38.17
20983;BME280;10650;51.528;6.748;2023-06-14T05:56:21;101377.56;;;22.04;37.94
20983;BME280;10650;51.528;6.748;2023-06-14T05:58:50;101390.19;;;22.05;38.31
20983;BME280;10650;51.528;6.748;2023-06-14T06:01:18;101380.41;;;22.01;38.07
20983;BME280;10650;51.528;6.748;2023-06-14T06:03:46;101379.75;;;21.95;38.55
20983;BME280;10650;51.528;6.748;2023-06-14T06:06:14;101380.50;;;21.99;38.43
20983;BME280;10650;51.528;6.748;2023-06-14T06:08:42;101382.13;;;22.03;38.40
20983;BME280;10650;51.528;6.748;2023-06-14T06:11:10;101380.94;;;22.09;38.76
20983;BME280;10650;51.528;6.748;2023-06-14T06:13:38;101381.47;;;22.17;38.90
20983;BME280;10650;51.528;6.748;2023-06-14T06:16:08;101374.78;;;22.24;38.91
20983;BME280;10650;51.528;6.748;2023-06-14T06:18:36;101387.44;;;22.25;38.76
20983;BME280;10650;51.528;6.748;2023-06-14T06:21:05;101390.31;;;22.22;38.21
20983;BME280;10650;51.528;6.748;2023-06-14T06:23:33;101397.50;;;22.23;38.06
20983;BME280;10650;51.528;6.748;2023-06-14T06:26:02;101403.84;;;22.24;38.44
20983;BME280;10650;51.528;6.748;2023-06-14T06:28:29;101400.59;;;22.16;38.41
20983;BME280;10650;51.528;6.748;2023-06-14T06:30:57;101399.91;;;22.10;38.29
20983;BME280;10650;51.528;6.748;2023-06-14T06:33:31;101399.75;;;22.13;38.41
20983;BME280;10650;51.528;6.748;2023-06-14T06:35:59;101406.34;;;22.28;39.09
20983;BME280;10650;51.528;6.748;2023-06-14T06:38:27;101417.63;;;22.40;38.15
20983;BME280;10650;51.528;6.748;2023-06-14T06:40:55;101416.44;;;22.45;37.79
20983;BME280;10650;51.528;6.748;2023-06-14T06:43:23;101411.09;;;22.44;37.37
20983;BME280;10650;51.528;6.748;2023-06-14T06:45:51;101409.06;;;22.48;37.82
20983;BME280;10650;51.528;6.748;2023-06-14T06:48:22;101424.47;;;22.49;37.09
20983;BME280;10650;51.528;6.748;2023-06-14T06:50:54;101426.16;;;22.51;36.83
20983;BME280;10650;51.528;6.748;2023-06-14T06:53:27;101434.47;;;22.48;36.86
20983;BME280;10650;51.528;6.748;2023-06-14T06:56:11;101427.09;;;22.50;37.08
20983;BME280;10650;51.528;6.748;2023-06-14T06:58:39;101423.59;;;22.48;37.31
20983;BME280;10650;51.528;6.748;2023-06-14T07:01:07;101431.00;;;22.63;37.03
20983;BME280;10650;51.528;6.748;2023-06-14T07:03:35;101432.44;;;22.71;36.86
20983;BME280;10650;51.528;6.748;2023-06-14T07:06:05;101440.34;;;22.77;36.65
20983;BME280;10650;51.528;6.748;2023-06-14T07:08:33;101434.38;;;22.69;36.97
20983;BME280;10650;51.528;6.748;2023-06-14T07:11:00;101440.97;;;22.82;37.12
20983;BME280;10650;51.528;6.748;2023-06-14T07:13:28;101444.28;;;22.89;36.52
20983;BME280;10650;51.528;6.748;2023-06-14T07:15:58;101444.22;;;22.90;35.58
20983;BME280;10650;51.528;6.748;2023-06-14T07:18:27;101453.69;;;23.01;35.84
20983;BME280;10650;51.528;6.748;2023-06-14T07:20:54;101444.31;;;23.06;35.99
20983;BME280;10650;51.528;6.748;2023-06-14T07:23:24;101444.03;;;23.12;35.75
20983;BME280;10650;51.528;6.748;2023-06-14T07:25:52;101441.91;;;23.19;36.27
20983;BME280;10650;51.528;6.748;2023-06-14T07:28:20;101438.47;;;23.33;36.09
20983;BME280;10650;51.528;6.748;2023-06-14T07:30:48;101437.09;;;23.42;36.00
20983;BME280;10650;51.528;6.748;2023-06-14T07:33:16;101444.72;;;23.53;36.27
20983;BME280;10650;51.528;6.748;2023-06-14T07:35:44;101436.22;;;23.59;35.98
20983;BME280;10650;51.528;6.748;2023-06-14T07:38:12;101440.41;;;23.66;36.13
20983;BME280;10650;51.528;6.748;2023-06-14T07:40:41;101444.72;;;23.53;35.29
20983;BME280;10650;51.528;6.748;2023-06-14T07:43:09;101439.19;;;23.54;35.80
20983;BME280;10650;51.528;6.748;2023-06-14T07:45:37;101445.28;;;23.42;35.28
20983;BME280;10650;51.528;6.748;2023-06-14T07:48:11;101446.25;;;23.41;35.52
20983;BME280;10650;51.528;6.748;2023-06-14T07:50:39;101439.25;;;23.35;34.62
20983;BME280;10650;51.528;6.748;2023-06-14T07:53:07;101449.53;;;23.30;34.98
20983;BME280;10650;51.528;6.748;2023-06-14T07:55:35;101438.38;;;23.35;34.99
20983;BME280;10650;51.528;6.748;2023-06-14T07:58:20;101445.03;;;23.46;34.77
20983;BME280;10650;51.528;6.748;2023-06-14T08:00:48;101454.81;;;23.50;34.70
20983;BME280;10650;51.528;6.748;2023-06-14T08:03:16;101449.44;;;23.66;35.69
20983;BME280;10650;51.528;6.748;2023-06-14T08:05:44;101443.53;;;23.76;35.69
20983;BME280;10650;51.528;6.748;2023-06-14T08:08:12;101447.59;;;23.84;35.68
20983;BME280;10650;51.528;6.748;2023-06-14T08:10:40;101449.22;;;23.89;35.92
20983;BME280;10650;51.528;6.748;2023-06-14T08:13:08;101455.69;;;24.04;36.52
20983;BME280;10650;51.528;6.748;2023-06-14T08:15:38;101451.47;;;24.14;35.01
20983;BME280;10650;51.528;6.748;2023-06-14T08:18:06;101462.69;;;23.92;35.36
20983;BME280;10650;51.528;6.748;2023-06-14T08:20:34;101449.75;;;23.95;35.73
20983;BME280;10650;51.528;6.748;2023-06-14T08:23:02;101454.78;;;23.87;35.75
20983;BME280;10650;51.528;6.748;2023-06-14T08:25:30;101450.72;;;23.77;35.95
20983;BME280;10650;51.528;6.748;2023-06-14T08:27:58;101454.81;;;23.68;35.83
20983;BME280;10650;51.528;6.748;2023-06-14T08:30:27;101457.38;;;23.71;35.88
20983;BME280;10650;51.528;6.748;2023-06-14T08:32:56;101451.44;;;23.80;35.95
20983;BME280;10650;51.528;6.748;2023-06-14T08:35:41;101451.38;;;23.64;34.98
20983;BME280;10650;51.528;6.748;2023-06-14T08:38:10;101459.81;;;23.77;35.39
20983;BME280;10650;51.528;6.748;2023-06-14T08:40:39;101454.44;;;23.93;35.47
20983;BME280;10650;51.528;6.748;2023-06-14T08:43:09;101460.75;;;23.76;34.56
20983;BME280;10650;51.528;6.748;2023-06-14T08:45:37;101459.97;;;23.74;34.14
20983;BME280;10650;51.528;6.748;2023-06-14T08:48:07;101447.28;;;23.73;34.92
20983;BME280;10650;51.528;6.748;2023-06-14T08:50:38;101460.09;;;23.71;34.97
20983;BME280;10650;51.528;6.748;2023-06-14T08:53:08;101453.69;;;23.72;34.61
20983;BME280;10650;51.528;6.748;2023-06-14T08:55:37;101453.22;;;23.81;34.79
20983;BME280;10650;51.528;6.748;2023-06-14T08:58:09;101455.31;;;23.94;35.37
20983;BME280;10650;51.528;6.748;2023-06-14T09:00:41;101446.94;;;23.97;34.67
20983;BME280;10650;51.528;6.748;2023-06-14T09:03:12;101458.94;;;23.94;34.67
20983;BME280;10650;51.528;6.748;2023-06-14T09:05:41;101457.47;;;24.05;35.17
20983;BME280;10650;51.528;6.748;2023-06-14T09:08:10;101461.00;;;23.89;34.83
20983;BME280;10650;51.528;6.748;2023-06-14T09:10:39;101442.88;;;23.53;34.75
20983;BME280;10650;51.528;6.748;2023-06-14T09:13:08;101461.97;;;23.71;34.94
20983;BME280;10650;51.528;6.748;2023-06-14T09:15:35;101465.63;;;23.70;34.13
20983;BME280;10650;51.528;6.748;2023-06-14T09:18:03;101470.53;;;23.80;34.26
20983;BME280;10650;51.528;6.748;2023-06-14T09:20:34;101469.84;;;23.94;34.29
20983;BME280;10650;51.528;6.748;2023-06-14T09:23:02;101461.16;;;23.86;34.37
20983;BME280;10650;51.528;6.748;2023-06-14T09:25:32;101461.31;;;23.83;34.81
20983;BME280;10650;51.528;6.748;2023-06-14T09:28:08;101458.00;;;24.11;34.71
20983;BME280;10650;51.528;6.748;2023-06-14T09:30:37;101466.53;;;24.39;34.05
20983;BME280;10650;51.528;6.748;2023-06-14T09:33:05;101458.50;;;24.51;34.05
20983;BME280;10650;51.528;6.748;2023-06-14T09:35:34;101467.59;;;24.52;33.92
20983;BME280;10650;51.528;6.748;2023-06-14T09:38:03;101456.41;;;24.57;34.06
20983;BME280;10650;51.528;6.748;2023-06-14T09:40:34;101456.72;;;24.68;34.22
20983;BME280;10650;51.528;6.748;2023-06-14T09:43:05;101472.88;;;24.55;32.48
20983;BME280;10650;51.528;6.748;2023-06-14T09:45:35;101470.25;;;24.53;32.97
20983;BME280;10650;51.528;6.748;2023-06-14T09:48:04;101462.03;;;24.38;32.17
20983;BME280;10650;51.528;6.748;2023-06-14T09:50:35;101471.22;;;24.19;32.76
20983;BME280;10650;51.528;6.748;2023-06-14T09:53:06;101469.94;;;24.26;32.56
20983;BME280;10650;51.528;6.748;2023-06-14T09:55:36;101470.59;;;24.47;32.80
20983;BME280;10650;51.528;6.748;2023-06-14T09:58:06;101468.25;;;24.73;32.95
20983;BME280;10650;51.528;6.748;2023-06-14T10:00:35;101464.47;;;24.92;32.39
20983;BME280;10650;51.528;6.748;2023-06-14T10:03:08;101461.81;;;24.90;32.11
20983;BME280;10650;51.528;6.748;2023-06-14T10:05:43;101458.09;;;25.07;33.10
20983;BME280;10650;51.528;6.748;2023-06-14T10:08:14;101473.50;;;25.24;31.76
20983;BME280;10650;51.528;6.748;2023-06-14T10:10:43;101481.97;;;25.35;31.33
20983;BME280;10650;51.528;6.748;2023-06-14T10:13:11;101460.47;;;25.13;30.68
20983;BME280;10650;51.528;6.748;2023-06-14T10:15:47;101477.56;;;25.17;31.17
20983;BME280;10650;51.528;6.748;2023-06-14T10:18:23;101467.94;;;25.26;30.95
20983;BME280;10650;51.528;6.748;2023-06-14T10:21:00;101471.91;;;25.36;30.86
20983;BME280;10650;51.528;6.748;2023-06-14T10:23:33;101475.06;;;25.28;31.16
20983;BME280;10650;51.528;6.748;2023-06-14T10:26:03;101475.28;;;25.25;31.01
20983;BME280;10650;51.528;6.748;2023-06-14T10:28:31;101466.03;;;24.96;30.68
20983;BME280;10650;51.528;6.748;2023-06-14T10:31:07;101464.28;;;25.11;30.99
20983;BME280;10650;51.528;6.748;2023-06-14T10:33:35;101456.56;;;25.17;30.63
20983;BME280;10650;51.528;6.748;2023-06-14T10:36:27;101458.34;;;25.34;30.68
20983;BME280;10650;51.528;6.748;2023-06-14T10:38:58;101464.31;;;25.41;30.96
20983;BME280;10650;51.528;6.748;2023-06-14T10:41:27;101462.13;;;25.16;30.10
20983;BME280;10650;51.528;6.748;2023-06-14T10:47:01;101464.66;;;25.04;30.77
20983;BME280;10650;51.528;6.748;2023-06-14T10:49:40;101471.91;;;25.36;31.65
20983;BME280;10650;51.528;6.748;2023-06-14T10:52:12;101457.22;;;25.53;30.86
20983;BME280;10650;51.528;6.748;2023-06-14T10:55:00;101459.88;;;25.54;30.16
20983;BME280;10650;51.528;6.748;2023-06-14T10:57:30;101463.16;;;25.45;30.58
20983;BME280;10650;51.528;6.748;2023-06-14T11:00:11;101438.47;;;25.47;30.73
20983;BME280;10650;51.528;6.748;2023-06-14T11:05:30;101462.78;;;25.51;30.35
20983;BME280;10650;51.528;6.748;2023-06-14T11:11:06;101450.50;;;25.59;30.43
20983;BME280;10650;51.528;6.748;2023-06-14T11:13:34;101465.31;;;25.70;30.83
20983;BME280;10650;51.528;6.748;2023-06-14T11:16:02;101447.44;;;25.79;30.50
20983;BME280;10650;51.528;6.748;2023-06-14T11:18:29;101447.03;;;25.41;30.51
20983;BME280;10650;51.528;6.748;2023-06-14T11:20:57;101468.13;;;25.38;30.68
20983;BME280;10650;51.528;6.748;2023-06-14T11:23:25;101438.56;;;25.45;30.33
20983;BME280;10650;51.528;6.748;2023-06-14T11:25:53;101452.78;;;25.66;30.66
20983;BME280;10650;51.528;6.748;2023-06-14T11:28:35;101452.63;;;25.84;30.72
20983;BME280;10650;51.528;6.748;2023-06-14T11:31:04;101442.50;;;25.70;30.59
20983;BME280;10650;51.528;6.748;2023-06-14T11:33:32;101451.72;;;25.83;30.28
20983;BME280;10650;51.528;6.748;2023-06-14T11:36:02;101438.78;;;26.01;30.71
20983;BME280;10650;51.528;6.748;2023-06-14T11:38:29;101449.06;;;26.12;30.27
20983;BME280;10650;51.528;6.748;2023-06-14T11:41:00;101450.78;;;26.13;30.25
20983;BME280;10650;51.528;6.748;2023-06-14T11:43:30;101441.13;;;26.22;30.22
20983;BME280;10650;51.528;6.748;2023-06-14T11:46:00;101447.50;;;26.08;30.16
20983;BME280;10650;51.528;6.748;2023-06-14T11:48:37;101439.28;;;26.08;30.60
20983;BME280;10650;51.528;6.748;2023-06-14T11:51:05;101444.25;;;26.01;30.92
20983;BME280;10650;51.528;6.748;2023-06-14T11:53:33;101452.53;;;26.00;31.19
20983;BME280;10650;51.528;6.748;2023-06-14T11:56:02;101442.59;;;26.13;31.31
20983;BME280;10650;51.528;6.748;2023-06-14T11:58:31;101448.56;;;26.20;30.36
20983;BME280;10650;51.528;6.748;2023-06-14T12:00:59;101449.44;;;26.20;31.02
20983;BME280;10650;51.528;6.748;2023-06-14T12:03:28;101451.59;;;26.15;30.57
20983;BME280;10650;51.528;6.748;2023-06-14T12:06:07;101447.56;;;26.35;30.64
20983;BME280;10650;51.528;6.748;2023-06-14T12:08:36;101443.47;;;26.14;29.90
20983;BME280;10650;51.528;6.748;2023-06-14T12:11:11;101442.38;;;26.16;30.67
20983;BME280;10650;51.528;6.748;2023-06-14T12:13:41;101432.13;;;26.20;30.61
20983;BME280;10650;51.528;6.748;2023-06-14T12:16:11;101437.19;;;26.40;30.18
20983;BME280;10650;51.528;6.748;2023-06-14T12:18:40;101440.69;;;26.57;30.54
20983;BME280;10650;51.528;6.748;2023-06-14T12:21:13;101430.44;;;26.46;28.77
20983;BME280;10650;51.528;6.748;2023-06-14T12:23:45;101440.50;;;26.60;30.15
20983;BME280;10650;51.528;6.748;2023-06-14T12:26:14;101440.81;;;26.70;29.63
20983;BME280;10650;51.528;6.748;2023-06-14T12:28:45;101434.50;;;26.82;29.75
20983;BME280;10650;51.528;6.748;2023-06-14T12:31:15;101432.59;;;26.97;29.63
20983;BME280;10650;51.528;6.748;2023-06-14T12:33:43;101427.44;;;26.92;29.29
20983;BME280;10650;51.528;6.748;2023-06-14T12:36:12;101442.59;;;26.98;29.38
20983;BME280;10650;51.528;6.748;2023-06-14T12:38:41;101437.75;;;26.74;29.35
20983;BME280;10650;51.528;6.748;2023-06-14T12:41:09;101438.63;;;26.60;30.10
20983;BME280;10650;51.528;6.748;2023-06-14T12:43:36;101437.09;;;26.71;29.70
20983;BME280;10650;51.528;6.748;2023-06-14T12:46:06;101443.59;;;26.83;29.53
20983;BME280;10650;51.528;6.748;2023-06-14T12:48:33;101452.03;;;26.80;29.30
20983;BME280;10650;51.528;6.748;2023-06-14T12:51:01;101434.50;;;26.82;29.42
20983;BME280;10650;51.528;6.748;2023-06-14T12:53:29;101440.19;;;26.65;29.32
20983;BME280;10650;51.528;6.748;2023-06-14T12:55:57;101436.47;;;26.66;29.75
20983;BME280;10650;51.528;6.748;2023-06-14T12:58:25;101435.81;;;26.76;29.54
20983;BME280;10650;51.528;6.748;2023-06-14T13:00:52;101444.09;;;26.89;29.32
20983;BME280;10650;51.528;6.748;2023-06-14T13:03:22;101437.50;;;26.92;29.62
20983;BME280;10650;51.528;6.748;2023-06-14T13:05:50;101437.34;;;27.08;29.60
20983;BME280;10650;51.528;6.748;2023-06-14T13:08:18;101451.66;;;27.26;28.87
20983;BME280;10650;51.528;6.748;2023-06-14T13:10:50;101453.28;;;27.16;28.67